createdAt,value
2017-06-14T00:00:02.507Z,99.99
2017-06-14T00:00:43.046Z,99.99
2017-06-14T00:01:23.583Z,99.99
2017-06-14T00:02:04.117Z,99.99
2017-06-14T00:02:44.660Z,99.99
2017-06-14T00:03:25.194Z,99.99
2017-06-14T00:04:05.735Z,99.99
2017-06-14T00:04:46.274Z,99.99
2017-06-14T00:05:26.813Z,99.99
2017-06-14T00:06:07.366Z,99.99
2017-06-14T00:06:47.914Z,99.99
2017-06-14T00:07:28.463Z,99.99
2017-06-14T00:08:08.998Z,99.99
2017-06-14T00:08:49.546Z,99.99
2017-06-14T00:09:30.093Z,99.99
2017-06-14T00:10:10.635Z,99.99
2017-06-14T00:10:51.174Z,99.99
2017-06-14T00:11:31.707Z,99.99
2017-06-14T00:12:12.253Z,99.99
2017-06-14T00:12:52.792Z,99.99
2017-06-14T00:13:33.331Z,99.99
2017-06-14T00:14:13.870Z,99.99
2017-06-14T00:14:54.411Z,99.99
2017-06-14T00:15:34.951Z,99.99
2017-06-14T00:16:15.492Z,99.99
2017-06-14T00:16:56.030Z,99.99
2017-06-14T00:17:36.569Z,99.99
2017-06-14T00:18:17.108Z,99.99
2017-06-14T00:18:57.653Z,99.99
2017-06-14T00:19:38.194Z,99.99
2017-06-14T00:20:18.741Z,99.99
2017-06-14T00:20:59.279Z,99.99
2017-06-14T00:21:39.822Z,99.99
2017-06-14T00:22:20.363Z,99.99
2017-06-14T00:23:00.901Z,99.99
2017-06-14T00:23:41.427Z,99.99
2017-06-14T00:24:21.964Z,99.99
2017-06-14T00:25:02.502Z,99.99
2017-06-14T00:25:43.029Z,99.99
2017-06-14T00:26:23.559Z,99.99
2017-06-14T00:27:04.089Z,99.99
2017-06-14T00:27:44.636Z,99.99
2017-06-14T00:28:25.169Z,99.99
2017-06-14T00:29:05.718Z,99.99
2017-06-14T00:29:46.254Z,99.99
2017-06-14T00:30:26.791Z,99.99
2017-06-14T00:31:07.342Z,99.99
2017-06-14T00:31:47.888Z,99.99
2017-06-14T00:32:28.429Z,99.99
2017-06-14T00:33:08.970Z,99.99
2017-06-14T00:33:49.515Z,99.99
2017-06-14T00:34:30.058Z,99.99
2017-06-14T00:35:10.595Z,99.99
2017-06-14T00:35:51.138Z,99.99
2017-06-14T00:36:31.677Z,99.99
2017-06-14T00:37:12.216Z,99.99
2017-06-14T00:37:52.754Z,99.99
2017-06-14T00:38:33.296Z,99.99
2017-06-14T00:39:13.844Z,99.99
2017-06-14T00:39:54.397Z,99.99
2017-06-14T00:40:34.934Z,99.99
2017-06-14T00:41:15.479Z,99.99
2017-06-14T00:41:56.013Z,99.99
2017-06-14T00:42:36.552Z,99.99
2017-06-14T00:43:17.093Z,99.99
2017-06-14T00:43:57.635Z,99.99
2017-06-14T00:44:38.182Z,99.99
2017-06-14T00:45:18.718Z,99.99
2017-06-14T00:45:59.263Z,99.99
2017-06-14T00:46:39.807Z,99.99
2017-06-14T00:47:20.353Z,99.99
2017-06-14T00:48:00.890Z,99.99
2017-06-14T00:48:41.429Z,99.99
2017-06-14T00:49:21.961Z,99.99
2017-06-14T00:50:02.491Z,99.99
2017-06-14T00:50:43.041Z,99.99
2017-06-14T00:51:23.573Z,99.99
2017-06-14T00:52:04.112Z,99.99
2017-06-14T00:52:44.661Z,99.99
2017-06-14T00:53:25.199Z,99.99
2017-06-14T00:54:05.741Z,99.99
2017-06-14T00:54:46.292Z,99.99
2017-06-14T00:55:26.837Z,99.99
2017-06-14T00:56:07.369Z,99.99
2017-06-14T00:56:47.910Z,99.99
2017-06-14T00:57:28.447Z,99.99
2017-06-14T00:58:08.986Z,99.99
2017-06-14T00:58:49.527Z,99.99
2017-06-14T00:59:30.080Z,99.99
2017-06-14T01:00:10.628Z,99.99
2017-06-14T01:00:51.171Z,99.99
2017-06-14T01:01:31.710Z,99.99
2017-06-14T01:02:12.250Z,99.99
2017-06-14T01:02:52.784Z,99.99
2017-06-14T01:03:33.324Z,99.99
2017-06-14T01:04:13.865Z,99.99
2017-06-14T01:04:54.403Z,99.99
2017-06-14T01:05:34.943Z,99.99
2017-06-14T01:06:15.482Z,99.99
2017-06-14T01:06:56.021Z,99.99
2017-06-14T01:07:36.568Z,99.99
2017-06-14T01:08:17.113Z,99.99
2017-06-14T01:08:57.649Z,99.99
2017-06-14T01:09:38.183Z,99.99
2017-06-14T01:10:18.718Z,99.99
2017-06-14T01:10:59.247Z,99.99
2017-06-14T01:11:39.789Z,99.99
2017-06-14T01:12:20.326Z,99.99
2017-06-14T01:13:00.866Z,99.99
2017-06-14T01:13:41.410Z,99.99
2017-06-14T01:14:21.952Z,99.99
2017-06-14T01:15:02.491Z,99.99
2017-06-14T01:15:43.029Z,99.99
2017-06-14T01:16:23.567Z,99.99
2017-06-14T01:17:04.113Z,99.99
2017-06-14T01:17:44.659Z,99.99
2017-06-14T01:18:25.197Z,99.99
2017-06-14T01:19:05.739Z,99.99
2017-06-14T01:19:46.287Z,99.99
2017-06-14T01:20:26.831Z,99.99
2017-06-14T01:21:07.373Z,99.99
2017-06-14T01:21:47.917Z,99.99
2017-06-14T01:22:28.439Z,99.99
2017-06-14T01:23:08.973Z,99.99
2017-06-14T01:23:49.512Z,99.99
2017-06-14T01:24:30.050Z,99.99
2017-06-14T01:25:10.592Z,99.99
2017-06-14T01:25:51.132Z,99.99
2017-06-14T01:26:31.670Z,99.99
2017-06-14T01:27:12.211Z,99.99
2017-06-14T01:27:52.752Z,99.99
2017-06-14T01:28:33.296Z,99.99
2017-06-14T01:29:13.836Z,99.99
2017-06-14T01:29:54.377Z,99.99
2017-06-14T01:30:34.916Z,99.99
2017-06-14T01:31:15.455Z,99.99
2017-06-14T01:31:55.993Z,99.99
2017-06-14T01:32:36.537Z,99.99
2017-06-14T01:33:17.075Z,99.99
2017-06-14T01:33:57.606Z,99.99
2017-06-14T01:34:38.153Z,99.99
2017-06-14T01:35:18.699Z,99.99
2017-06-14T01:35:59.234Z,99.99
2017-06-14T01:36:39.770Z,99.99
2017-06-14T01:37:20.312Z,99.99
2017-06-14T01:38:00.854Z,99.99
2017-06-14T01:38:41.392Z,99.99
2017-06-14T01:39:21.933Z,99.99
2017-06-14T01:40:02.484Z,99.99
2017-06-14T01:40:43.034Z,99.99
2017-06-14T01:41:23.579Z,99.99
2017-06-14T01:42:04.112Z,99.99
2017-06-14T01:42:44.653Z,99.99
2017-06-14T01:43:25.217Z,99.99
2017-06-14T01:44:05.723Z,99.99
2017-06-14T01:44:46.255Z,99.99
2017-06-14T01:45:26.897Z,99.99
2017-06-14T01:46:07.421Z,99.99
2017-06-14T01:46:47.966Z,99.99
2017-06-14T01:47:28.517Z,99.99
2017-06-14T01:48:09.048Z,99.99
2017-06-14T01:48:49.589Z,99.99
2017-06-14T01:49:30.130Z,99.99
2017-06-14T01:50:10.672Z,99.99
2017-06-14T01:50:51.231Z,99.99
2017-06-14T01:51:31.769Z,99.99
2017-06-14T01:52:12.308Z,99.99
2017-06-14T01:52:52.849Z,99.99
2017-06-14T01:53:33.397Z,99.99
2017-06-14T01:54:13.962Z,99.99
2017-06-14T01:54:54.504Z,99.99
2017-06-14T01:55:35.061Z,99.99
2017-06-14T01:56:15.598Z,99.99
2017-06-14T01:56:56.130Z,99.99
2017-06-14T01:57:36.675Z,99.99
2017-06-14T01:58:17.207Z,99.99
2017-06-14T01:58:57.746Z,99.99
2017-06-14T01:59:38.289Z,99.99
2017-06-14T02:00:18.829Z,99.99
2017-06-14T02:00:59.383Z,99.99
2017-06-14T02:01:39.933Z,99.99
2017-06-14T02:02:20.480Z,99.99
2017-06-14T02:03:01.021Z,99.99
2017-06-14T02:03:41.569Z,99.99
2017-06-14T02:04:22.113Z,99.99
2017-06-14T02:05:02.658Z,99.99
2017-06-14T02:05:43.201Z,99.99
2017-06-14T02:06:23.740Z,99.99
2017-06-14T02:07:04.279Z,99.99
2017-06-14T02:07:44.818Z,99.99
2017-06-14T02:08:25.358Z,99.99
2017-06-14T02:09:05.898Z,99.99
2017-06-14T02:09:46.439Z,99.99
2017-06-14T02:10:26.978Z,99.99
2017-06-14T02:11:07.537Z,99.99
2017-06-14T02:11:48.078Z,99.99
2017-06-14T02:12:28.620Z,99.99
2017-06-14T02:13:09.158Z,99.99
2017-06-14T02:13:49.698Z,99.99
2017-06-14T02:14:30.231Z,99.99
2017-06-14T02:15:10.776Z,99.99
2017-06-14T02:15:51.312Z,99.99
2017-06-14T02:16:31.856Z,99.99
2017-06-14T02:17:12.397Z,99.99
2017-06-14T02:17:52.934Z,99.99
2017-06-14T02:18:33.473Z,99.99
2017-06-14T02:19:14.019Z,99.99
2017-06-14T02:19:54.575Z,99.99
2017-06-14T02:20:35.124Z,99.99
2017-06-14T02:21:15.664Z,99.99
2017-06-14T02:21:56.205Z,99.99
2017-06-14T02:22:36.742Z,99.99
2017-06-14T02:23:17.286Z,99.99
2017-06-14T02:23:57.817Z,99.99
2017-06-14T02:24:38.366Z,99.99
2017-06-14T02:25:18.923Z,99.99
2017-06-14T02:25:59.457Z,99.99
2017-06-14T02:26:40.014Z,99.99
2017-06-14T02:27:20.524Z,99.99
2017-06-14T02:28:01.060Z,99.99
2017-06-14T02:28:41.589Z,99.99
2017-06-14T02:29:22.127Z,99.99
2017-06-14T02:30:02.670Z,99.99
2017-06-14T02:30:43.206Z,99.99
2017-06-14T02:31:23.750Z,99.99
2017-06-14T02:32:04.299Z,99.99
2017-06-14T02:32:44.842Z,99.99
2017-06-14T02:33:25.374Z,99.99
2017-06-14T02:34:05.904Z,99.99
2017-06-14T02:34:46.458Z,99.99
2017-06-14T02:35:26.994Z,99.99
2017-06-14T02:36:07.539Z,99.99
2017-06-14T02:36:48.079Z,99.99
2017-06-14T02:37:28.625Z,99.99
2017-06-14T02:38:09.164Z,99.99
2017-06-14T02:38:49.706Z,99.99
2017-06-14T02:39:30.247Z,99.99
2017-06-14T02:40:10.793Z,99.99
2017-06-14T02:40:51.323Z,99.99
2017-06-14T02:41:31.876Z,99.99
2017-06-14T02:42:12.411Z,99.99
2017-06-14T02:42:52.955Z,99.99
2017-06-14T02:43:33.487Z,99.99
2017-06-14T02:44:14.039Z,98.66
2017-06-14T02:44:54.590Z,99.9
2017-06-14T02:45:35.149Z,99.99
2017-06-14T02:46:15.688Z,99.61
2017-06-14T02:46:56.223Z,99.61
2017-06-14T02:47:36.757Z,99.71
2017-06-14T02:48:17.328Z,98.94
2017-06-14T02:48:57.827Z,98.94
2017-06-14T02:49:38.363Z,98.75
2017-06-14T02:50:18.894Z,98.85
2017-06-14T02:50:59.432Z,98.94
2017-06-14T02:51:39.978Z,98.94
2017-06-14T02:52:20.517Z,98.37
2017-06-14T02:53:01.057Z,98.47
2017-06-14T02:53:41.596Z,98.27
2017-06-14T02:54:22.135Z,98.27
2017-06-14T02:55:02.677Z,97.51
2017-06-14T02:55:43.223Z,97.8
2017-06-14T02:56:23.753Z,97.89
2017-06-14T02:57:04.293Z,97.8
2017-06-14T02:57:44.831Z,97.51
2017-06-14T02:58:25.373Z,97.42
2017-06-14T02:59:05.909Z,97.51
2017-06-14T02:59:46.442Z,97.13
2017-06-14T03:00:26.989Z,97.32
2017-06-14T03:01:07.531Z,97.13
2017-06-14T03:01:48.072Z,97.03
2017-06-14T03:02:28.620Z,97.13
2017-06-14T03:03:09.151Z,96.84
2017-06-14T03:03:49.687Z,95.89
2017-06-14T03:04:30.242Z,96.17
2017-06-14T03:05:10.785Z,96.27
2017-06-14T03:05:51.325Z,96.27
2017-06-14T03:06:31.866Z,96.56
2017-06-14T03:07:12.398Z,96.08
2017-06-14T03:07:52.943Z,95.7
2017-06-14T03:08:33.477Z,95.79
2017-06-14T03:09:14.020Z,96.08
2017-06-14T03:09:54.557Z,95.89
2017-06-14T03:10:35.092Z,95.79
2017-06-14T03:11:15.638Z,95.03
2017-06-14T03:11:56.180Z,95.12
2017-06-14T03:12:36.725Z,95.22
2017-06-14T03:13:17.267Z,94.84
2017-06-14T03:13:57.804Z,94.74
2017-06-14T03:14:38.334Z,94.84
2017-06-14T03:15:18.875Z,94.65
2017-06-14T03:15:59.412Z,94.36
2017-06-14T03:16:39.950Z,94.46
2017-06-14T03:17:20.491Z,94.27
2017-06-14T03:18:01.031Z,93.88
2017-06-14T03:18:41.564Z,94.27
2017-06-14T03:19:22.111Z,94.27
2017-06-14T03:20:02.650Z,94.46
2017-06-14T03:20:43.179Z,93.88
2017-06-14T03:21:23.715Z,93.79
2017-06-14T03:22:04.264Z,93.51
2017-06-14T03:22:44.793Z,93.6
2017-06-14T03:23:25.337Z,93.41
2017-06-14T03:24:05.908Z,93.7
2017-06-14T03:24:46.436Z,93.7
2017-06-14T03:25:26.979Z,93.7
2017-06-14T03:26:07.533Z,93.79
2017-06-14T03:26:48.060Z,93.31
2017-06-14T03:27:28.599Z,93.6
2017-06-14T03:28:09.148Z,93.6
2017-06-14T03:28:49.684Z,93.7
2017-06-14T03:29:30.226Z,93.41
2017-06-14T03:30:10.767Z,93.31
2017-06-14T03:30:51.316Z,93.41
2017-06-14T03:31:31.848Z,93.51
2017-06-14T03:32:12.391Z,93.6
2017-06-14T03:32:52.936Z,93.12
2017-06-14T03:33:33.471Z,92.65
2017-06-14T03:34:14.019Z,92.93
2017-06-14T03:34:54.552Z,92.83
2017-06-14T03:35:35.093Z,93.02
2017-06-14T03:36:15.647Z,92.74
2017-06-14T03:36:56.171Z,92.55
2017-06-14T03:37:36.713Z,92.74
2017-06-14T03:38:17.271Z,93.02
2017-06-14T03:38:57.814Z,92.26
2017-06-14T03:39:38.363Z,92.07
2017-06-14T03:40:19.538Z,92.26
2017-06-14T03:41:00.080Z,91.78
2017-06-14T03:41:40.616Z,91.88
2017-06-14T03:42:21.156Z,91.6
2017-06-14T03:43:01.695Z,91.88
2017-06-14T03:43:42.234Z,91.69
2017-06-14T03:44:22.777Z,91.98
2017-06-14T03:45:03.318Z,91.31
2017-06-14T03:45:43.865Z,91.5
2017-06-14T03:46:24.408Z,91.5
2017-06-14T03:47:04.947Z,91.78
2017-06-14T03:47:45.487Z,91.78
2017-06-14T03:48:26.023Z,91.78
2017-06-14T03:49:06.564Z,91.69
2017-06-14T03:49:47.102Z,91.12
2017-06-14T03:50:27.636Z,91.5
2017-06-14T03:51:08.189Z,91.41
2017-06-14T03:51:48.733Z,91.12
2017-06-14T03:52:29.273Z,91.21
2017-06-14T03:53:09.808Z,91.12
2017-06-14T03:53:50.357Z,90.55
2017-06-14T03:54:30.916Z,90.64
2017-06-14T03:55:11.457Z,90.17
2017-06-14T03:55:52.011Z,90.17
2017-06-14T03:56:32.558Z,90.26
2017-06-14T03:57:13.054Z,90.64
2017-06-14T03:57:53.590Z,89.97
2017-06-14T03:58:34.127Z,89.97
2017-06-14T03:59:14.661Z,90.17
2017-06-14T03:59:55.208Z,89.97
2017-06-14T04:00:35.748Z,90.26
2017-06-14T04:01:16.290Z,90.36
2017-06-14T04:01:56.878Z,89.4
2017-06-14T04:02:37.415Z,89.69
2017-06-14T04:03:17.963Z,90.07
2017-06-14T04:03:58.487Z,89.78
2017-06-14T04:04:39.019Z,89.69
2017-06-14T04:05:19.556Z,89.88
2017-06-14T04:06:00.099Z,89.31
2017-06-14T04:06:40.628Z,89.4
2017-06-14T04:07:21.165Z,89.4
2017-06-14T04:08:01.703Z,89.59
2017-06-14T04:08:42.287Z,89.59
2017-06-14T04:09:22.831Z,88.92
2017-06-14T04:10:03.361Z,89.21
2017-06-14T04:10:43.883Z,89.12
2017-06-14T04:11:24.421Z,89.31
2017-06-14T04:12:04.973Z,89.02
2017-06-14T04:12:45.484Z,89.12
2017-06-14T04:13:26.021Z,88.45
2017-06-14T04:14:07.764Z,88.64
2017-06-14T04:14:53.461Z,88.26
2017-06-14T04:15:34.834Z,88.35
2017-06-14T04:16:21.464Z,88.83
2017-06-14T04:18:18.009Z,88.45
2017-06-14T04:18:59.290Z,88.35
2017-06-14T04:19:41.577Z,88.26
2017-06-14T04:20:23.491Z,88.54
2017-06-14T04:21:04.473Z,88.07
2017-06-14T04:21:45.008Z,88.54
2017-06-14T04:22:26.186Z,88.35
2017-06-14T04:23:07.118Z,88.26
2017-06-14T04:23:48.490Z,88.26
2017-06-14T04:24:28.856Z,88.07
2017-06-14T04:25:09.547Z,88.26
2017-06-14T04:25:50.436Z,88.07
2017-06-14T04:26:30.917Z,88.26
2017-06-14T04:27:12.149Z,87.59
2017-06-14T04:27:52.774Z,87.4
2017-06-14T04:28:33.760Z,87.3
2017-06-14T04:29:14.561Z,87.78
2017-06-14T04:29:55.327Z,87.87
2017-06-14T04:30:35.857Z,87.59
2017-06-14T04:31:16.400Z,87.59
2017-06-14T04:31:57.091Z,87.21
2017-06-14T04:32:37.763Z,87.4
2017-06-14T04:33:18.519Z,87.21
2017-06-14T04:33:59.115Z,87.3
2017-06-14T04:34:40.058Z,86.73
2017-06-14T04:35:20.785Z,86.73
2017-06-14T04:36:01.517Z,86.63
2017-06-14T04:36:42.463Z,86.73
2017-06-14T04:37:23.230Z,86.35
2017-06-14T04:38:04.108Z,86.35
2017-06-14T04:38:44.709Z,86.68
2017-06-14T04:39:25.389Z,86.54
2017-06-14T04:40:06.067Z,86.58
2017-06-14T04:40:46.752Z,86.87
2017-06-14T04:41:27.320Z,86.35
2017-06-14T04:42:07.846Z,86.58
2017-06-14T04:42:48.458Z,86.39
2017-06-14T04:43:29.006Z,86.3
2017-06-14T04:44:09.563Z,86.06
2017-06-14T04:44:50.104Z,86.49
2017-06-14T04:45:30.681Z,86.39
2017-06-14T04:46:11.216Z,86.49
2017-06-14T04:46:52.073Z,86.49
2017-06-14T04:47:32.617Z,85.91
2017-06-14T04:48:13.152Z,85.72
2017-06-14T04:48:53.752Z,86.39
2017-06-14T04:49:34.435Z,85.91
2017-06-14T04:50:15.250Z,85.82
2017-06-14T04:50:55.644Z,86.01
2017-06-14T04:51:36.373Z,86.01
2017-06-14T04:52:16.915Z,85.82
2017-06-14T04:52:57.454Z,85.72
2017-06-14T04:53:38.020Z,85.72
2017-06-14T04:54:18.764Z,85.72
2017-06-14T04:54:59.417Z,86.1
2017-06-14T04:55:39.962Z,85.91
2017-06-14T04:56:20.501Z,86.1
2017-06-14T04:57:01.044Z,85.72
2017-06-14T04:57:41.855Z,85.44
2017-06-14T04:58:22.399Z,85.25
2017-06-14T04:59:03.119Z,85.53
2017-06-14T04:59:43.967Z,85.53
2017-06-14T05:00:24.518Z,85.72
2017-06-14T05:01:05.063Z,85.44
2017-06-14T05:01:45.745Z,85.44
2017-06-14T05:02:26.311Z,85.63
2017-06-14T05:03:06.842Z,85.82
2017-06-14T05:03:47.385Z,85.72
2017-06-14T05:04:27.948Z,85.72
2017-06-14T05:05:08.484Z,85.63
2017-06-14T05:05:49.015Z,85.82
2017-06-14T05:06:29.553Z,85.05
2017-06-14T05:07:10.066Z,85.05
2017-06-14T05:07:51.684Z,84.96
2017-06-14T05:08:31.830Z,85.44
2017-06-14T05:09:12.368Z,85.34
2017-06-14T05:09:52.899Z,85.34
2017-06-14T05:10:33.448Z,85.53
2017-06-14T05:11:14.002Z,85.15
2017-06-14T05:11:54.551Z,84.96
2017-06-14T05:12:35.081Z,84.96
2017-06-14T05:13:15.611Z,84.86
2017-06-14T05:13:56.153Z,85.05
2017-06-14T05:14:36.703Z,85.05
2017-06-14T05:15:17.252Z,84.96
2017-06-14T05:15:57.788Z,85
2017-06-14T05:16:38.328Z,85.05
2017-06-14T05:17:18.870Z,85
2017-06-14T05:17:59.423Z,85.15
2017-06-14T05:18:39.957Z,85.1
2017-06-14T05:19:20.486Z,85.1
2017-06-14T05:20:01.022Z,85.1
2017-06-14T05:20:41.564Z,85.96
2017-06-14T05:21:22.101Z,85.77
2017-06-14T05:22:02.647Z,85.77
2017-06-14T05:22:43.182Z,85.96
2017-06-14T05:23:23.714Z,85.96
2017-06-14T05:24:04.242Z,85.48
2017-06-14T05:24:44.770Z,85.58
2017-06-14T05:25:25.309Z,85.58
2017-06-14T05:26:05.860Z,85.67
2017-06-14T05:26:46.399Z,85.77
2017-06-14T05:27:26.933Z,85.86
2017-06-14T05:28:07.515Z,85.58
2017-06-14T05:28:48.087Z,85.96
2017-06-14T05:29:30.224Z,86.05
2017-06-14T05:30:11.286Z,85.96
2017-06-14T05:30:52.061Z,86.15
2017-06-14T05:31:34.498Z,86.05
2017-06-14T05:32:16.395Z,86.15
2017-06-14T05:32:58.262Z,85.86
2017-06-14T05:33:38.792Z,86.15
2017-06-14T05:34:19.549Z,86.43
2017-06-14T05:35:04.376Z,86.47
2017-06-14T05:35:46.104Z,86.76
2017-06-14T05:36:30.847Z,86.29
2017-06-14T05:37:12.580Z,86.67
2017-06-14T05:37:53.593Z,86.57
2017-06-14T05:38:34.622Z,86.76
2017-06-14T05:39:15.753Z,86.96
2017-06-14T05:39:56.496Z,86.47
2017-06-14T05:40:38.386Z,86.96
2017-06-14T05:41:23.252Z,87.62
2017-06-14T05:42:05.210Z,87.34
2017-06-14T05:42:45.742Z,87.34
2017-06-14T05:43:26.282Z,87.91
2017-06-14T05:44:06.827Z,88.2
2017-06-14T05:44:47.349Z,88.39
2017-06-14T05:45:27.907Z,88.29
2017-06-14T05:46:08.450Z,88.87
2017-06-14T05:46:48.970Z,88.62
2017-06-14T05:47:29.487Z,89.39
2017-06-14T05:48:10.000Z,88.91
2017-06-14T05:48:50.547Z,89.1
2017-06-14T05:49:31.071Z,89.48
2017-06-14T05:50:11.618Z,89.2
2017-06-14T05:50:52.262Z,89.77
2017-06-14T05:51:33.083Z,89.87
2017-06-14T05:52:13.724Z,89.48
2017-06-14T05:52:54.250Z,90.16
2017-06-14T05:53:34.747Z,90.34
2017-06-14T05:54:15.288Z,90.16
2017-06-14T05:54:55.838Z,90.92
2017-06-14T05:55:36.371Z,90.53
2017-06-14T05:56:16.908Z,91.3
2017-06-14T05:56:57.441Z,91.59
2017-06-14T05:57:37.962Z,92.16
2017-06-14T05:58:18.500Z,92.02
2017-06-14T05:58:59.043Z,92.25
2017-06-14T05:59:39.637Z,92.16
2017-06-14T06:00:20.087Z,92.49
2017-06-14T06:01:00.617Z,93.26
2017-06-14T06:01:41.166Z,92.97
2017-06-14T06:02:21.715Z,93.16
2017-06-14T06:03:02.251Z,93.74
2017-06-14T06:03:42.788Z,94.21
2017-06-14T06:04:23.331Z,94.12
2017-06-14T06:05:03.872Z,94.89
2017-06-14T06:05:44.396Z,95.27
2017-06-14T06:06:24.941Z,95.7
2017-06-14T06:07:05.487Z,95.51
2017-06-14T06:07:46.035Z,96.75
2017-06-14T06:08:26.570Z,97.23
2017-06-14T06:09:07.112Z,97.52
2017-06-14T06:09:47.650Z,98.28
2017-06-14T06:10:28.191Z,97.42
2017-06-14T06:11:08.775Z,98.19
2017-06-14T06:11:49.314Z,98
2017-06-14T06:12:29.852Z,98.66
2017-06-14T06:13:10.404Z,99.05
2017-06-14T06:13:50.943Z,98.95
2017-06-14T06:14:31.484Z,99.33
2017-06-14T06:15:12.033Z,99.99
2017-06-14T06:15:52.580Z,99.99
2017-06-14T06:16:33.127Z,99.99
2017-06-14T06:17:13.672Z,99.99
2017-06-14T06:17:54.214Z,99.99
2017-06-14T06:18:34.753Z,99.99
2017-06-14T06:19:15.282Z,99.99
2017-06-14T06:19:55.810Z,99.99
2017-06-14T06:20:36.349Z,99.99
2017-06-14T06:21:16.905Z,99.99
2017-06-14T06:21:57.454Z,99.99
2017-06-14T06:22:38.002Z,99.99
2017-06-14T06:23:18.553Z,99.99
2017-06-14T06:23:59.093Z,99.99
2017-06-14T06:24:39.640Z,99.99
2017-06-14T06:25:20.160Z,99.99
2017-06-14T06:26:00.707Z,99.99
2017-06-14T06:26:41.241Z,99.99
2017-06-14T06:27:21.793Z,99.99
2017-06-14T06:28:02.334Z,99.99
2017-06-14T06:28:42.874Z,99.99
2017-06-14T06:29:23.421Z,99.99
2017-06-14T06:30:03.965Z,99.99
2017-06-14T06:30:44.524Z,99.99
2017-06-14T06:31:25.076Z,99.99
2017-06-14T06:32:05.626Z,99.99
2017-06-14T06:32:46.170Z,99.99
2017-06-14T06:33:26.740Z,99.99
2017-06-14T06:34:07.301Z,99.99
2017-06-14T06:34:47.840Z,99.99
2017-06-14T06:35:28.365Z,99.99
2017-06-14T06:36:08.866Z,99.99
2017-06-14T06:36:49.439Z,99.99
2017-06-14T06:37:29.946Z,99.99
2017-06-14T06:38:10.481Z,99.99
2017-06-14T06:38:51.011Z,99.99
2017-06-14T06:39:31.562Z,99.99
2017-06-14T06:40:12.081Z,99.99
2017-06-14T06:40:52.614Z,99.99
2017-06-14T06:41:33.210Z,99.99
2017-06-14T06:42:14.017Z,99.99
2017-06-14T06:42:54.549Z,99.99
2017-06-14T06:43:35.241Z,99.99
2017-06-14T06:44:15.884Z,99.99
2017-06-14T06:44:56.411Z,99.99
2017-06-14T06:45:37.093Z,99.99
2017-06-14T06:46:17.704Z,99.99
2017-06-14T06:46:58.205Z,99.99
2017-06-14T06:47:38.752Z,99.99
2017-06-14T06:48:19.303Z,99.99
2017-06-14T06:48:59.850Z,99.99
2017-06-14T06:49:40.487Z,99.99
2017-06-14T06:50:21.037Z,99.99
2017-06-14T06:51:01.596Z,99.99
2017-06-14T06:51:42.137Z,99.99
2017-06-14T06:52:22.675Z,99.99
2017-06-14T06:53:03.353Z,99.99
2017-06-14T06:53:43.903Z,99.99
2017-06-14T06:54:24.435Z,99.99
2017-06-14T06:55:05.042Z,99.99
2017-06-14T06:55:45.554Z,99.99
2017-06-14T06:56:26.115Z,99.99
2017-06-14T06:57:06.684Z,99.99
2017-06-14T06:57:47.285Z,99.99
2017-06-14T06:58:27.884Z,99.99
2017-06-14T06:59:08.385Z,99.99
2017-06-14T06:59:48.921Z,99.99
2017-06-14T07:00:29.461Z,99.99
2017-06-14T07:01:10.006Z,99.99
2017-06-14T07:01:50.528Z,99.99
2017-06-14T07:02:31.077Z,99.99
2017-06-14T07:03:11.614Z,99.99
2017-06-14T07:03:52.167Z,99.99
2017-06-14T07:04:32.719Z,99.99
2017-06-14T07:05:13.269Z,99.99
2017-06-14T07:05:53.812Z,99.99
2017-06-14T07:06:34.348Z,99.99
2017-06-14T07:07:14.900Z,99.99
2017-06-14T07:07:55.449Z,99.99
2017-06-14T07:08:35.978Z,99.99
2017-06-14T07:09:16.539Z,99.99
2017-06-14T07:09:57.114Z,99.99
2017-06-14T07:10:37.671Z,99.99
2017-06-14T07:11:18.201Z,99.99
2017-06-14T07:11:58.755Z,99.99
2017-06-14T07:12:39.320Z,99.99
2017-06-14T07:13:19.833Z,99.99
2017-06-14T07:14:00.384Z,99.99
2017-06-14T07:14:40.907Z,99.99
2017-06-14T07:15:21.458Z,99.99
2017-06-14T07:16:02.014Z,99.99
2017-06-14T07:16:42.568Z,99.99
2017-06-14T07:17:23.091Z,99.99
2017-06-14T07:18:03.635Z,99.99
2017-06-14T07:18:44.163Z,99.99
2017-06-14T07:19:24.736Z,99.99
2017-06-14T07:20:05.292Z,99.99
2017-06-14T07:20:45.829Z,99.99
2017-06-14T07:21:26.379Z,99.99
2017-06-14T07:22:06.940Z,99.99
2017-06-14T07:22:47.486Z,99.99
2017-06-14T07:23:28.040Z,99.99
2017-06-14T07:24:08.586Z,99.99
2017-06-14T07:24:49.137Z,99.99
2017-06-14T07:25:29.691Z,99.99
2017-06-14T07:26:10.218Z,99.99
2017-06-14T07:26:50.771Z,99.99
2017-06-14T07:27:31.319Z,99.99
2017-06-14T07:28:11.898Z,99.99
2017-06-14T07:28:52.453Z,99.99
2017-06-14T07:29:32.986Z,99.99
2017-06-14T07:30:13.527Z,99.99
2017-06-14T07:30:54.056Z,99.99
2017-06-14T07:31:34.595Z,99.99
2017-06-14T07:32:15.135Z,99.99
2017-06-14T07:32:55.667Z,99.99
2017-06-14T07:33:36.204Z,99.99
2017-06-14T07:34:16.761Z,99.99
2017-06-14T07:34:57.304Z,99.99
2017-06-14T07:35:37.842Z,99.99
2017-06-14T07:36:18.375Z,99.99
2017-06-14T07:36:58.924Z,99.99
2017-06-14T07:37:39.448Z,99.99
2017-06-14T07:38:19.971Z,99.99
2017-06-14T07:39:00.496Z,99.99
2017-06-14T07:39:41.061Z,99.99
2017-06-14T07:40:21.584Z,99.99
2017-06-14T07:41:02.127Z,99.99
2017-06-14T07:41:42.674Z,99.99
2017-06-14T07:42:23.204Z,99.99
2017-06-14T07:43:03.761Z,99.99
2017-06-14T07:43:44.308Z,99.99
2017-06-14T07:44:24.833Z,99.99
2017-06-14T07:45:05.375Z,99.99
2017-06-14T07:45:45.929Z,99.99
2017-06-14T07:46:26.434Z,99.99
2017-06-14T07:47:06.990Z,99.99
2017-06-14T07:47:47.532Z,99.99
2017-06-14T07:48:28.094Z,99.99
2017-06-14T07:49:08.632Z,99.99
2017-06-14T07:49:49.207Z,99.99
2017-06-14T07:50:29.748Z,99.99
2017-06-14T07:51:10.295Z,99.99
2017-06-14T07:51:50.842Z,99.99
2017-06-14T07:52:31.363Z,99.99
2017-06-14T07:53:11.880Z,99.99
2017-06-14T07:53:52.435Z,99.99
2017-06-14T07:54:32.982Z,99.99
2017-06-14T07:55:13.519Z,99.99
2017-06-14T07:55:54.095Z,99.99
2017-06-14T07:56:34.625Z,99.99
2017-06-14T07:57:15.154Z,99.99
2017-06-14T07:57:55.703Z,99.99
2017-06-14T07:58:36.285Z,99.99
2017-06-14T07:59:16.832Z,99.99
2017-06-14T07:59:57.348Z,99.99
2017-06-14T08:00:37.926Z,99.99
2017-06-14T08:01:18.470Z,99.99
2017-06-14T08:01:59.016Z,99.99
2017-06-14T08:02:39.551Z,99.99
2017-06-14T08:03:20.089Z,99.99
2017-06-14T08:04:00.625Z,99.99
2017-06-14T08:04:41.222Z,99.99
2017-06-14T08:05:21.794Z,99.99
2017-06-14T08:06:02.340Z,99.99
2017-06-14T08:06:42.877Z,99.99
2017-06-14T08:07:23.442Z,99.99
2017-06-14T08:08:03.993Z,99.99
2017-06-14T08:08:44.541Z,99.99
2017-06-14T08:09:25.094Z,99.99
2017-06-14T08:10:05.631Z,99.99
2017-06-14T08:10:46.183Z,99.99
2017-06-14T08:11:26.732Z,99.99
2017-06-14T08:12:07.303Z,99.99
2017-06-14T08:12:47.822Z,99.99
2017-06-14T08:13:28.372Z,99.99
2017-06-14T08:14:08.920Z,99.99
2017-06-14T08:14:49.477Z,99.99
2017-06-14T08:15:30.028Z,99.99
2017-06-14T08:16:10.576Z,99.99
2017-06-14T08:16:51.129Z,99.99
2017-06-14T08:17:31.689Z,99.99
2017-06-14T08:18:12.257Z,99.99
2017-06-14T08:18:52.781Z,99.99
2017-06-14T08:19:33.339Z,99.99
2017-06-14T08:20:13.910Z,99.99
2017-06-14T08:20:54.458Z,99.99
2017-06-14T08:21:35.003Z,99.99
2017-06-14T08:22:15.602Z,99.99
2017-06-14T08:22:56.132Z,99.99
2017-06-14T08:23:36.675Z,99.99
2017-06-14T08:24:17.213Z,99.99
2017-06-14T08:24:57.772Z,99.99
2017-06-14T08:25:38.305Z,99.99
2017-06-14T08:26:18.852Z,99.99
2017-06-14T08:26:59.414Z,99.99
2017-06-14T08:27:39.961Z,99.99
2017-06-14T08:28:20.518Z,99.94
2017-06-14T08:29:01.064Z,98
2017-06-14T08:29:41.627Z,95.44
2017-06-14T08:30:22.159Z,93.55
2017-06-14T08:31:02.707Z,90.75
2017-06-14T08:31:43.244Z,88.57
2017-06-14T08:32:23.822Z,86.19
2017-06-14T08:33:04.387Z,84.16
2017-06-14T08:33:44.923Z,83.15
2017-06-14T08:34:25.476Z,82.08
2017-06-14T08:35:06.012Z,81.21
2017-06-14T08:35:46.582Z,80.54
2017-06-14T08:36:27.117Z,80.38
2017-06-14T08:37:07.681Z,78.54
2017-06-14T08:37:48.232Z,75.13
2017-06-14T08:38:28.785Z,73.13
2017-06-14T08:39:09.368Z,70.51
2017-06-14T08:39:49.969Z,67.83
2017-06-14T08:40:30.542Z,66.6
2017-06-14T08:41:11.086Z,63.62
2017-06-14T08:41:51.648Z,61.29
2017-06-14T08:42:32.184Z,59.92
2017-06-14T08:43:12.727Z,59.54
2017-06-14T08:43:53.295Z,59.25
2017-06-14T08:44:33.827Z,58.95
2017-06-14T08:45:14.378Z,57.79